Time;durP1;ratioP1;P1;durP2;ratioP2;P2;SDS_P1;SDS_P2;PMS_P1;PMS_P2;Temp;Humidity;BMP_temperature;BMP_pressure;BME280_temperature;BME280_humidity;BME280_pressure;Samples;Min_cycle;Max_cycle;Signal;HPM_P1;HPM_P2
2023/02/02 00:00:57;;;;;;;4.10;2.28;;;6.90;99.90;;;;;;5114313;28;20522;-84
2023/02/02 00:03:26;;;;;;;3.17;2.60;;;6.80;99.90;;;;;;5113751;28;20187;-84
2023/02/02 00:05:53;;;;;;;3.83;2.55;;;6.70;99.90;;;;;;5095785;28;20275;-83
2023/02/02 00:08:20;;;;;;;3.78;2.65;;;6.60;99.90;;;;;;5113754;28;20206;-87
2023/02/02 00:10:46;;;;;;;4.25;3.10;;;6.40;99.90;;;;;;5113479;28;20284;-89
2023/02/02 00:13:12;;;;;;;3.97;2.80;;;6.30;99.90;;;;;;5095597;28;20609;-87
2023/02/02 00:15:39;;;;;;;3.85;3.10;;;6.30;99.90;;;;;;5096761;28;20318;-85
2023/02/02 00:18:08;;;;;;;4.10;3.35;;;6.30;99.90;;;;;;5099334;28;20605;-88
2023/02/02 00:20:33;;;;;;;4.43;3.40;;;6.20;99.90;;;;;;5099499;28;20644;-85
2023/02/02 00:22:59;;;;;;;3.30;3.00;;;6.10;99.90;;;;;;5117531;28;20187;-84
2023/02/02 00:25:25;;;;;;;5.00;3.73;;;6.10;99.90;;;;;;5099281;28;20658;-84
2023/02/02 00:27:51;;;;;;;3.75;3.40;;;6.00;99.90;;;;;;5099194;28;20535;-87
2023/02/02 00:30:17;;;;;;;5.37;4.10;;;6.00;99.90;;;;;;5099604;28;20259;-87
2023/02/02 00:32:43;;;;;;;6.07;4.13;;;5.90;99.90;;;;;;5117440;28;20612;-87
2023/02/02 00:35:09;;;;;;;4.70;3.80;;;5.90;99.90;;;;;;5117377;28;20415;-83
2023/02/02 00:37:35;;;;;;;4.85;3.90;;;5.80;99.90;;;;;;5100333;28;20691;-86
2023/02/02 00:40:01;;;;;;;5.43;4.40;;;5.80;99.90;;;;;;5098810;28;20184;-87
2023/02/02 00:42:26;;;;;;;5.07;4.27;;;5.90;99.90;;;;;;5117149;28;20428;-83
2023/02/02 00:47:36;;;;;;;7.55;4.80;;;5.90;99.90;;;;;;5117128;28;20686;-85
2023/02/02 00:50:03;;;;;;;6.97;5.33;;;5.80;99.90;;;;;;5099041;28;20172;-87
2023/02/02 00:52:29;;;;;;;6.22;5.47;;;5.80;99.90;;;;;;5116930;28;20218;-87
2023/02/02 00:54:54;;;;;;;7.97;6.80;;;5.80;99.90;;;;;;5098695;28;20183;-85
2023/02/02 00:57:20;;;;;;;8.23;6.17;;;5.70;99.90;;;;;;5116856;28;20220;-86
2023/02/02 00:59:46;;;;;;;9.27;7.33;;;5.70;99.90;;;;;;5116877;28;20254;-84
2023/02/02 01:02:12;;;;;;;7.47;6.70;;;5.70;99.90;;;;;;5098731;28;20195;-86
2023/02/02 01:04:38;;;;;;;7.33;6.53;;;5.80;99.90;;;;;;5098486;28;20481;-82
2023/02/02 01:07:05;;;;;;;9.57;8.18;;;5.80;99.90;;;;;;5117176;28;20955;-86
2023/02/02 01:09:30;;;;;;;14.05;9.35;;;5.80;99.90;;;;;;5116878;28;20527;-82
2023/02/02 01:11:56;;;;;;;12.13;8.80;;;5.80;99.90;;;;;;5116489;28;20242;-84
2023/02/02 01:14:22;;;;;;;10.43;8.90;;;5.80;99.90;;;;;;5098351;28;20271;-84
2023/02/02 01:16:48;;;;;;;11.40;9.00;;;5.90;99.90;;;;;;5098129;28;20874;-84
2023/02/02 01:19:15;;;;;;;13.37;8.67;;;5.90;99.90;;;;;;5116457;28;20396;-85
2023/02/02 01:21:41;;;;;;;13.75;9.55;;;5.90;99.90;;;;;;5098441;28;20886;-88
2023/02/02 01:24:07;;;;;;;12.07;10.02;;;5.90;99.90;;;;;;5099733;28;20196;-89
2023/02/02 01:26:33;;;;;;;14.43;10.47;;;5.90;99.90;;;;;;5100358;28;20180;-83
2023/02/02 01:28:59;;;;;;;15.10;10.93;;;5.90;99.90;;;;;;5115948;28;20448;-88
2023/02/02 01:31:24;;;;;;;12.37;10.40;;;5.80;99.90;;;;;;5116429;28;20179;-85
2023/02/02 01:33:50;;;;;;;14.60;10.30;;;5.70;99.90;;;;;;5097905;28;20210;-87
2023/02/02 01:36:19;;;;;;;15.15;11.95;;;5.70;99.90;;;;;;5098110;28;20212;-84
2023/02/02 01:38:46;;;;;;;14.70;11.30;;;5.70;99.90;;;;;;5097800;28;20192;-83
2023/02/02 01:41:15;;;;;;;14.38;11.80;;;5.70;99.90;;;;;;5098034;28;20237;-88
2023/02/02 01:43:44;;;;;;;21.92;12.02;;;5.70;99.90;;;;;;5115987;28;20248;-88
2023/02/02 01:46:18;;;;;;;16.33;12.07;;;5.70;99.90;;;;;;5115925;28;20222;-84
2023/02/02 01:48:50;;;;;;;17.85;11.45;;;5.70;99.90;;;;;;5097559;28;20196;-89
2023/02/02 01:51:20;;;;;;;17.50;11.77;;;5.70;99.90;;;;;;5097685;28;20187;-83
2023/02/02 01:53:48;;;;;;;17.60;11.43;;;5.70;99.90;;;;;;5097489;28;20195;-84
2023/02/02 01:56:18;;;;;;;13.43;10.40;;;5.70;99.90;;;;;;5097614;28;20211;-85
2023/02/02 01:58:45;;;;;;;16.42;12.05;;;5.70;99.90;;;;;;5097432;28;20191;-85
2023/02/02 02:01:12;;;;;;;17.38;11.35;;;5.60;99.90;;;;;;5116025;28;20180;-84
2023/02/02 02:03:38;;;;;;;15.93;11.88;;;5.70;99.90;;;;;;5097365;28;20206;-85
2023/02/02 02:06:09;;;;;;;16.40;11.60;;;5.60;99.90;;;;;;5115939;28;20176;-84
2023/02/02 02:08:41;;;;;;;17.55;11.82;;;5.50;99.90;;;;;;5115617;28;20541;-86
2023/02/02 02:11:06;;;;;;;15.18;10.75;;;5.50;99.90;;;;;;5097048;28;20326;-85
2023/02/02 02:16:29;;;;;;;15.40;10.95;;;5.50;99.90;;;;;;5115897;28;20618;-85
2023/02/02 02:19:13;;;;;;;12.82;9.75;;;5.60;99.90;;;;;;5115447;28;20187;-88
2023/02/02 02:27:40;;;;;;;13.93;10.73;;;5.60;99.90;;;;;;5115117;28;20287;-86
2023/02/02 02:30:21;;;;;;;13.95;9.65;;;5.60;99.90;;;;;;5115179;28;20168;-84
2023/02/02 02:33:08;;;;;;;16.92;9.63;;;5.60;99.90;;;;;;5096894;28;20191;-87
2023/02/02 02:35:54;;;;;;;14.52;10.30;;;5.60;99.90;;;;;;5096699;28;20188;-84
2023/02/02 02:38:36;;;;;;;14.02;10.20;;;5.70;99.90;;;;;;5114616;28;20712;-84
2023/02/02 02:41:21;;;;;;;12.32;10.13;;;5.70;99.90;;;;;;5115193;28;20180;-87
2023/02/02 02:44:03;;;;;;;13.70;9.75;;;5.80;99.90;;;;;;5096548;28;20279;-86
2023/02/02 02:46:30;;;;;;;16.73;11.48;;;5.90;99.90;;;;;;5096880;28;20187;-86
2023/02/02 02:48:58;;;;;;;10.98;9.10;;;6.00;99.90;;;;;;5114752;28;20180;-84
2023/02/02 02:51:50;;;;;;;14.68;10.02;;;6.00;99.90;;;;;;5114951;28;20172;-87
2023/02/02 02:54:36;;;;;;;13.15;9.35;;;6.10;99.90;;;;;;5114771;28;20243;-86
2023/02/02 02:57:21;;;;;;;12.85;9.77;;;6.10;99.90;;;;;;5114620;28;20552;-85
2023/02/02 03:00:08;;;;;;;18.35;11.00;;;6.20;99.90;;;;;;5114624;28;20172;-85
2023/02/02 03:02:52;;;;;;;18.73;11.50;;;6.30;99.90;;;;;;5114562;28;20204;-84
2023/02/02 03:05:33;;;;;;;12.60;9.32;;;6.30;99.90;;;;;;5114468;28;20259;-84
2023/02/02 03:08:05;;;;;;;10.93;8.65;;;6.30;99.90;;;;;;5096145;28;20538;-84
2023/02/02 03:10:33;;;;;;;11.57;9.25;;;6.30;99.90;;;;;;5096086;28;20557;-87
2023/02/02 03:12:59;;;;;;;10.80;9.35;;;6.30;99.90;;;;;;5114578;28;20183;-88
2023/02/02 03:15:25;;;;;;;13.60;9.85;;;6.40;99.90;;;;;;5114604;28;20183;-85
2023/02/02 03:17:52;;;;;;;12.23;9.33;;;6.40;99.90;;;;;;5097941;28;20203;-89
2023/02/02 03:20:18;;;;;;;12.70;9.55;;;6.50;99.90;;;;;;5096716;28;20244;-85
2023/02/02 03:22:44;;;;;;;15.67;10.33;;;6.60;99.90;;;;;;5114169;28;20203;-86
2023/02/02 03:25:10;;;;;;;15.07;10.10;;;6.60;99.90;;;;;;5096119;28;20395;-87
2023/02/02 03:27:39;;;;;;;15.25;11.35;;;6.60;99.90;;;;;;5114148;28;20222;-85
2023/02/02 03:30:10;;;;;;;15.57;10.85;;;6.70;99.90;;;;;;5114285;28;20526;-85
2023/02/02 03:32:36;;;;;;;14.45;11.07;;;6.70;99.90;;;;;;5095915;28;20240;-84
2023/02/02 03:35:03;;;;;;;13.45;10.70;;;6.70;99.90;;;;;;5114197;28;20246;-89
2023/02/02 03:37:28;;;;;;;14.80;11.25;;;6.70;99.90;;;;;;5095754;28;20219;-84
2023/02/02 03:39:54;;;;;;;18.23;12.70;;;6.60;99.90;;;;;;5095865;28;20682;-83
2023/02/02 03:42:20;;;;;;;16.40;10.43;;;6.60;99.90;;;;;;5114010;28;20244;-87
2023/02/02 03:44:45;;;;;;;15.43;11.33;;;6.60;99.90;;;;;;5114098;28;20167;-84
2023/02/02 03:47:11;;;;;;;15.80;10.70;;;6.50;99.90;;;;;;5095556;28;20200;-87
2023/02/02 03:49:37;;;;;;;15.57;11.87;;;6.40;99.90;;;;;;5095657;28;20172;-83
2023/02/02 03:52:03;;;;;;;12.90;10.43;;;6.40;99.90;;;;;;5099495;28;20184;-87
2023/02/02 03:54:29;;;;;;;12.27;8.82;;;6.40;99.90;;;;;;5099857;28;20171;-88
2023/02/02 03:56:55;;;;;;;11.85;7.78;;;6.50;99.90;;;;;;5099892;28;20314;-85
2023/02/02 03:59:21;;;;;;;11.73;8.27;;;6.50;99.90;;;;;;5118083;28;20203;-84
2023/02/02 04:01:47;;;;;;;12.20;8.60;;;6.60;99.90;;;;;;5118262;28;20415;-87
2023/02/02 04:04:13;;;;;;;8.97;6.93;;;6.60;99.90;;;;;;5118519;28;20163;-86
2023/02/02 04:06:38;;;;;;;5.93;4.93;;;6.60;99.90;;;;;;5118389;28;20258;-84
2023/02/02 04:09:04;;;;;;;5.87;5.27;;;6.50;99.90;;;;;;5117829;28;20184;-85
2023/02/02 04:11:30;;;;;;;4.70;4.10;;;6.50;99.90;;;;;;5099515;28;20275;-85
2023/02/02 04:13:56;;;;;;;5.37;4.47;;;6.50;99.90;;;;;;5099487;28;20558;-87
2023/02/02 04:16:22;;;;;;;4.00;3.50;;;6.50;99.90;;;;;;5117970;28;20214;-85
2023/02/02 04:18:47;;;;;;;4.00;3.60;;;6.60;99.90;;;;;;5117762;28;20187;-83
2023/02/02 04:21:13;;;;;;;4.70;3.20;;;6.60;99.90;;;;;;5118052;28;20424;-86
2023/02/02 04:23:39;;;;;;;2.40;2.20;;;6.60;99.90;;;;;;5117451;28;20275;-87
2023/02/02 04:26:05;;;;;;;3.60;2.70;;;6.60;99.90;;;;;;5117828;28;20579;-86
2023/02/02 04:28:31;;;;;;;2.97;2.40;;;6.50;99.90;;;;;;5099351;28;20203;-84
2023/02/02 04:30:57;;;;;;;2.55;2.35;;;6.40;99.90;;;;;;5099325;28;20186;-87
2023/02/02 04:33:24;;;;;;;3.67;2.60;;;6.40;99.90;;;;;;5099091;28;20187;-83
2023/02/02 04:35:50;;;;;;;4.93;3.10;;;6.40;99.90;;;;;;5117476;28;20215;-83
2023/02/02 04:38:16;;;;;;;3.67;3.23;;;6.30;99.90;;;;;;5098989;28;20191;-83
2023/02/02 04:40:43;;;;;;;5.27;3.33;;;6.20;99.90;;;;;;5099026;28;20905;-83
2023/02/02 04:43:10;;;;;;;6.95;3.67;;;6.10;99.90;;;;;;5098089;28;20260;-84
2023/02/02 04:45:36;;;;;;;4.80;3.83;;;6.20;99.90;;;;;;5117187;28;20270;-84
2023/02/02 04:48:02;;;;;;;8.88;3.85;;;6.20;99.90;;;;;;5098833;28;20560;-85
2023/02/02 04:50:29;;;;;;;3.15;2.83;;;6.10;99.90;;;;;;5098919;28;20706;-83
2023/02/02 04:52:55;;;;;;;4.13;2.85;;;6.10;99.90;;;;;;5098686;28;20629;-84
2023/02/02 04:55:21;;;;;;;2.73;2.53;;;6.10;99.90;;;;;;5116867;28;20270;-89
2023/02/02 04:57:46;;;;;;;2.67;2.43;;;6.10;99.90;;;;;;5117256;28;20411;-86
2023/02/02 05:00:12;;;;;;;5.33;2.33;;;6.10;99.90;;;;;;5117089;28;20245;-84
2023/02/02 05:02:39;;;;;;;3.17;2.03;;;6.10;99.90;;;;;;5097415;28;20287;-87
2023/02/02 05:05:07;;;;;;;2.85;2.55;;;6.10;99.90;;;;;;5116702;28;20172;-87
2023/02/02 05:07:34;;;;;;;2.90;1.90;;;6.10;99.90;;;;;;5098399;28;20200;-83
2023/02/02 05:10:00;;;;;;;2.28;1.75;;;6.10;99.90;;;;;;5116692;28;20164;-87
2023/02/02 05:12:25;;;;;;;2.87;1.77;;;6.10;99.90;;;;;;5116498;28;20231;-82
2023/02/02 05:14:51;;;;;;;1.90;1.80;;;6.10;99.90;;;;;;5098301;28;20408;-84
2023/02/02 05:17:17;;;;;;;2.00;1.80;;;6.10;99.90;;;;;;5098078;28;20226;-82
2023/02/02 05:19:43;;;;;;;3.33;1.47;;;6.10;99.90;;;;;;5107615;28;20912;-84
2023/02/02 05:22:08;;;;;;;3.80;1.80;;;6.20;99.90;;;;;;5078267;28;20208;-88
2023/02/02 05:24:34;;;;;;;7.07;5.03;;;6.10;99.90;;;;;;5091415;28;20423;-85
2023/02/02 05:27:00;;;;;;;3.50;2.20;;;6.10;99.90;;;;;;5092383;28;20575;-83
2023/02/02 05:29:27;;;;;;;2.43;2.00;;;6.10;99.90;;;;;;5104098;28;20320;-84
2023/02/02 05:31:53;;;;;;;3.65;2.80;;;6.10;99.90;;;;;;5105246;28;20233;-86
2023/02/02 05:34:19;;;;;;;2.25;1.70;;;6.10;99.90;;;;;;5103934;28;20213;-84
2023/02/02 05:36:45;;;;;;;1.73;1.63;;;6.10;99.90;;;;;;5103358;28;20207;-85
2023/02/02 05:39:11;;;;;;;3.03;2.60;;;6.10;99.90;;;;;;5090212;28;20477;-84
2023/02/02 05:41:36;;;;;;;3.23;2.60;;;6.10;99.90;;;;;;5104494;28;20425;-85
2023/02/02 05:44:02;;;;;;;2.30;1.77;;;6.10;99.90;;;;;;5103496;28;20188;-87
2023/02/02 05:46:28;;;;;;;1.50;1.30;;;6.00;99.90;;;;;;5080488;28;20189;-83
2023/02/02 05:48:55;;;;;;;2.67;1.40;;;6.00;99.90;;;;;;5099205;28;20600;-87
2023/02/02 05:51:28;;;;;;;2.15;1.30;;;5.90;99.90;;;;;;5077372;28;20716;-85
2023/02/02 05:53:54;;;;;;;1.83;1.63;;;5.80;99.90;;;;;;5098527;28;20229;-85
2023/02/02 05:56:20;;;;;;;6.30;3.00;;;5.80;99.90;;;;;;5113086;28;20208;-86
2023/02/02 05:58:48;;;;;;;2.47;1.40;;;5.80;99.90;;;;;;5083820;28;20213;-83
2023/02/02 06:01:16;;;;;;;1.50;1.20;;;5.80;99.90;;;;;;5115098;28;20176;-86
2023/02/02 06:03:41;;;;;;;1.92;1.50;;;5.80;99.90;;;;;;5115348;28;20304;-84
2023/02/02 06:06:07;;;;;;;1.47;1.20;;;5.80;99.90;;;;;;5115444;28;20656;-84
2023/02/02 06:08:33;;;;;;;4.17;1.70;;;5.80;99.90;;;;;;5096709;28;20208;-85
2023/02/02 06:10:59;;;;;;;3.25;1.77;;;5.80;99.90;;;;;;5094066;28;20472;-84
2023/02/02 06:13:25;;;;;;;3.30;1.80;;;5.80;99.90;;;;;;5076348;28;20237;-89
2023/02/02 06:15:50;;;;;;;3.40;1.43;;;5.80;99.90;;;;;;5106321;28;20207;-85
2023/02/02 06:18:16;;;;;;;2.77;2.00;;;5.80;99.90;;;;;;5074812;28;20220;-84
2023/02/02 06:20:42;;;;;;;1.50;1.40;;;5.80;99.90;;;;;;5086860;28;20210;-86
2023/02/02 06:23:09;;;;;;;1.70;1.10;;;5.70;99.90;;;;;;5110034;28;20215;-85
2023/02/02 06:25:34;;;;;;;2.27;1.63;;;5.70;99.90;;;;;;5091773;28;20184;-85
2023/02/02 06:28:00;;;;;;;5.63;3.57;;;5.70;99.90;;;;;;5094628;28;20698;-84
2023/02/02 06:30:27;;;;;;;2.60;1.67;;;5.70;99.90;;;;;;5111953;28;20180;-84
2023/02/02 06:32:53;;;;;;;3.78;2.22;;;5.70;99.90;;;;;;5104902;28;20216;-83
2023/02/02 06:35:19;;;;;;;2.20;1.80;;;5.70;99.90;;;;;;5087410;28;20184;-84
2023/02/02 06:37:45;;;;;;;2.13;1.92;;;5.60;99.90;;;;;;5111511;28;20280;-82
2023/02/02 06:40:12;;;;;;;2.93;1.60;;;5.70;99.90;;;;;;5105590;28;20214;-84
2023/02/02 06:42:38;;;;;;;2.45;1.58;;;5.70;99.90;;;;;;5099600;28;20725;-83
2023/02/02 06:45:04;;;;;;;4.18;1.75;;;5.70;99.90;;;;;;5111685;28;20179;-83
2023/02/02 06:47:33;;;;;;;2.95;1.30;;;5.70;99.90;;;;;;5111146;28;20196;-83
2023/02/02 06:49:59;;;;;;;2.03;1.58;;;5.70;99.90;;;;;;5093527;28;20644;-83
2023/02/02 06:52:25;;;;;;;2.40;1.53;;;5.70;99.90;;;;;;5108771;28;20191;-83
2023/02/02 06:54:50;;;;;;;5.33;1.60;;;5.70;99.90;;;;;;5073943;28;20184;-83
2023/02/02 06:57:16;;;;;;;4.53;2.83;;;5.70;99.90;;;;;;5093294;28;20500;-84
2023/02/02 06:59:42;;;;;;;7.90;5.90;;;5.70;99.90;;;;;;5093303;28;20225;-83
2023/02/02 07:02:12;;;;;;;3.80;2.90;;;5.70;99.90;;;;;;5093815;28;20208;-84
2023/02/02 07:04:38;;;;;;;7.15;5.10;;;5.70;99.90;;;;;;5098797;28;20525;-83
2023/02/02 07:07:04;;;;;;;6.40;3.95;;;5.60;99.90;;;;;;5083209;28;20187;-83
2023/02/02 07:09:32;;;;;;;3.10;2.80;;;5.70;99.90;;;;;;5111342;28;20645;-82
2023/02/02 07:11:58;;;;;;;4.65;3.58;;;5.60;99.90;;;;;;5087742;28;20537;-83
2023/02/02 07:14:24;;;;;;;4.33;2.50;;;5.60;99.90;;;;;;5095706;28;20278;-83
2023/02/02 07:16:49;;;;;;;3.97;2.90;;;5.60;99.90;;;;;;5111837;28;20225;-84
2023/02/02 07:19:15;;;;;;;6.03;2.27;;;5.70;99.90;;;;;;5110186;28;20184;-84
2023/02/02 07:21:41;;;;;;;6.40;3.63;;;5.70;99.90;;;;;;5073273;28;20188;-83
2023/02/02 07:24:07;;;;;;;7.70;3.40;;;5.80;99.90;;;;;;5074189;28;20203;-82
2023/02/02 07:26:34;;;;;;;5.28;3.35;;;5.80;99.90;;;;;;5096398;28;20172;-83
2023/02/02 07:29:00;;;;;;;2.97;2.67;;;5.80;99.90;;;;;;5076478;28;20249;-83
2023/02/02 07:31:26;;;;;;;3.30;2.23;;;5.90;99.90;;;;;;5076813;28;20169;-84
2023/02/02 07:33:52;;;;;;;2.80;1.73;;;6.20;99.90;;;;;;5092947;28;20207;-83
2023/02/02 07:36:20;;;;;;;3.97;2.60;;;6.40;99.90;;;;;;5088083;28;20219;-82
2023/02/02 07:38:47;;;;;;;6.07;3.25;;;6.60;99.90;;;;;;5089417;28;20204;-85
2023/02/02 07:41:13;;;;;;;6.97;4.50;;;6.80;99.90;;;;;;5093793;28;20283;-84
2023/02/02 07:43:39;;;;;;;2.35;1.50;;;7.00;99.90;;;;;;5091918;28;20231;-83
2023/02/02 07:46:08;;;;;;;5.40;4.03;;;7.20;99.90;;;;;;5108666;28;20215;-85
2023/02/02 07:48:34;;;;;;;4.43;2.33;;;7.40;99.90;;;;;;5099682;28;20540;-84
2023/02/02 07:51:01;;;;;;;3.97;2.40;;;7.60;99.90;;;;;;5094002;28;20247;-83
2023/02/02 07:53:28;;;;;;;3.88;2.85;;;7.90;99.90;;;;;;5102893;28;20207;-85
2023/02/02 07:56:03;;;;;;;2.55;1.60;;;8.30;99.90;;;;;;5084356;28;20223;-85
2023/02/02 07:58:29;;;;;;;3.08;1.80;;;8.80;99.90;;;;;;5092981;28;20611;-84
2023/02/02 08:00:58;;;;;;;3.80;2.30;;;9.30;99.90;;;;;;5110077;28;20179;-84
2023/02/02 08:03:24;;;;;;;5.00;2.15;;;10.10;99.90;;;;;;5111433;28;20211;-84
2023/02/02 08:05:50;;;;;;;5.13;2.55;;;10.70;99.90;;;;;;5084066;28;20557;-83
2023/02/02 08:08:16;;;;;;;2.03;1.80;;;11.30;99.90;;;;;;5089969;28;20209;-84
2023/02/02 08:10:53;;;;;;;6.83;3.97;;;11.80;99.90;;;;;;5108335;28;20265;-85
2023/02/02 08:13:19;;;;;;;3.73;2.20;;;12.40;99.90;;;;;;5101272;28;20299;-84
2023/02/02 08:15:45;;;;;;;2.60;2.40;;;13.10;99.90;;;;;;5078183;28;20429;-84
2023/02/02 08:18:10;;;;;;;4.93;4.53;;;13.50;99.90;;;;;;5096724;28;20804;-84
2023/02/02 08:20:36;;;;;;;5.40;4.17;;;13.80;99.90;;;;;;5093696;28;20684;-85
2023/02/02 08:23:02;;;;;;;2.90;2.33;;;14.20;99.90;;;;;;5112814;28;20200;-85
2023/02/02 08:25:28;;;;;;;2.87;1.83;;;14.40;99.90;;;;;;5086709;28;20180;-83
2023/02/02 08:28:01;;;;;;;2.50;2.30;;;14.70;99.90;;;;;;5088774;28;20449;-83
2023/02/02 08:30:27;;;;;;;2.03;1.50;;;15.10;99.90;;;;;;5080085;28;20625;-85
2023/02/02 08:32:53;;;;;;;7.70;2.30;;;15.60;99.90;;;;;;5090436;28;20531;-84
2023/02/02 08:35:18;;;;;;;2.33;1.70;;;16.10;99.90;;;;;;5096415;28;20202;-85
2023/02/02 08:37:48;;;;;;;4.83;2.60;;;16.50;99.90;;;;;;5095720;28;20750;-84
2023/02/02 08:40:14;;;;;;;2.77;1.30;;;16.70;98.50;;;;;;5112317;28;20672;-84
2023/02/02 08:42:40;;;;;;;3.13;1.20;;;16.50;97.20;;;;;;5076221;28;20597;-84
2023/02/02 08:45:07;;;;;;;2.20;1.00;;;16.40;97.30;;;;;;5076631;28;20409;-85
2023/02/02 08:47:32;;;;;;;1.30;1.17;;;16.30;97.60;;;;;;5100591;28;20444;-84
2023/02/02 08:49:58;;;;;;;2.33;1.70;;;16.50;96.70;;;;;;5091246;28;20793;-85
2023/02/02 08:52:24;;;;;;;2.10;1.10;;;16.70;96.10;;;;;;5092987;28;20458;-83
2023/02/02 08:54:49;;;;;;;3.93;1.33;;;17.20;95.20;;;;;;5105178;28;20259;-83
2023/02/02 08:57:16;;;;;;;2.10;1.30;;;17.60;94.70;;;;;;5093471;28;20254;-85
2023/02/02 08:59:41;;;;;;;2.30;1.20;;;17.90;93.70;;;;;;5094396;28;20519;-84
2023/02/02 09:02:12;;;;;;;2.47;1.40;;;18.10;93.10;;;;;;5087267;28;20457;-85
2023/02/02 09:04:39;;;;;;;1.60;1.20;;;18.10;92.20;;;;;;5095554;28;20229;-83
2023/02/02 09:07:04;;;;;;;1.57;1.30;;;17.40;91.90;;;;;;5099289;28;20810;-83
2023/02/02 09:09:31;;;;;;;1.20;1.10;;;16.80;92.40;;;;;;5083919;28;20420;-83
2023/02/02 09:11:57;;;;;;;1.90;1.30;;;16.50;92.90;;;;;;5093315;28;20243;-84
2023/02/02 09:14:22;;;;;;;1.97;1.20;;;16.40;92.80;;;;;;5085481;28;20790;-82
2023/02/02 09:16:48;;;;;;;4.63;1.20;;;16.20;93.20;;;;;;5109153;28;20459;-84
2023/02/02 09:19:14;;;;;;;4.33;1.57;;;15.80;93.10;;;;;;5086398;28;20721;-84
2023/02/02 09:21:39;;;;;;;1.77;1.67;;;15.40;92.90;;;;;;5092999;28;20184;-84
2023/02/02 09:24:08;;;;;;;2.80;1.27;;;15.30;93.80;;;;;;5106939;28;20199;-82
2023/02/02 09:26:34;;;;;;;1.57;1.40;;;15.40;94.10;;;;;;5090105;28;20168;-83
2023/02/02 09:29:03;;;;;;;3.03;1.33;;;15.90;93.50;;;;;;5083282;28;20994;-83
2023/02/02 09:31:33;;;;;;;3.77;1.17;;;16.00;93.10;;;;;;5108564;28;20194;-84
2023/02/02 09:34:07;;;;;;;3.93;1.90;;;16.30;92.60;;;;;;5088459;28;20539;-84
2023/02/02 09:36:33;;;;;;;2.43;1.17;;;16.30;92.20;;;;;;5090222;28;20491;-84
2023/02/02 09:38:59;;;;;;;2.23;1.57;;;16.30;91.90;;;;;;5081122;28;20802;-84
2023/02/02 09:41:37;;;;;;;3.90;1.60;;;16.50;91.90;;;;;;5087493;28;20783;-85
2023/02/02 09:44:24;;;;;;;2.33;1.30;;;16.60;92.00;;;;;;5095861;28;20231;-85
2023/02/02 09:47:22;;;;;;;6.10;1.40;;;16.70;91.60;;;;;;5079712;28;20439;-85
2023/02/02 09:50:21;;;;;;;1.40;0.90;;;16.70;91.50;;;;;;5079800;28;20447;-84
2023/02/02 09:53:15;;;;;;;2.93;1.30;;;16.80;91.20;;;;;;5090416;28;20496;-85
2023/02/02 09:55:44;;;;;;;2.50;1.03;;;16.60;90.60;;;;;;5073033;28;20436;-83
2023/02/02 09:58:15;;;;;;;1.47;1.20;;;16.40;91.40;;;;;;5088401;28;20456;-84
2023/02/02 10:00:51;;;;;;;3.27;1.33;;;16.40;91.30;;;;;;5084779;28;21030;-86
2023/02/02 10:03:32;;;;;;;2.90;1.60;;;16.10;91.30;;;;;;5081476;28;20968;-85
2023/02/02 10:06:34;;;;;;;3.53;1.77;;;15.60;91.90;;;;;;5085590;28;20683;-84
2023/02/02 10:09:18;;;;;;;2.00;1.43;;;15.10;92.70;;;;;;5089116;28;20435;-84
2023/02/02 10:12:22;;;;;;;4.00;1.50;;;14.30;92.10;;;;;;5091565;28;20869;-83
2023/02/02 10:15:12;;;;;;;1.67;1.17;;;13.80;92.60;;;;;;5084866;28;20544;-83
2023/02/02 10:17:59;;;;;;;2.10;1.13;;;13.30;92.90;;;;;;5094237;28;20479;-83
2023/02/02 10:20:29;;;;;;;5.03;1.37;;;12.90;92.80;;;;;;5106267;28;20974;-84
2023/02/02 10:23:02;;;;;;;2.60;1.20;;;12.60;93.20;;;;;;5097438;28;20601;-84
2023/02/02 10:25:29;;;;;;;4.87;2.57;;;12.40;94.00;;;;;;5099630;28;20420;-84
2023/02/02 10:28:05;;;;;;;4.30;1.33;;;12.40;94.30;;;;;;5090731;28;20421;-84
2023/02/02 10:30:48;;;;;;;3.63;1.20;;;12.40;94.00;;;;;;5081974;28;20840;-83
2023/02/02 10:33:21;;;;;;;3.50;1.50;;;12.20;93.90;;;;;;5080446;28;20753;-84
2023/02/02 10:36:07;;;;;;;1.40;1.07;;;12.10;94.10;;;;;;5108691;28;20843;-84
2023/02/02 10:38:49;;;;;;;2.83;1.53;;;12.00;94.40;;;;;;5089648;28;20448;-83
2023/02/02 10:41:34;;;;;;;1.13;1.00;;;11.90;94.60;;;;;;5096968;28;20812;-83
2023/02/02 10:44:20;;;;;;;4.40;1.47;;;11.80;94.50;;;;;;5111537;28;20432;-84
2023/02/02 10:46:50;;;;;;;4.07;1.17;;;11.90;94.90;;;;;;5108020;28;20458;-85
2023/02/02 10:49:34;;;;;;;3.50;1.57;;;11.90;95.10;;;;;;5076809;28;20961;-83
2023/02/02 10:52:17;;;;;;;2.83;1.33;;;12.00;95.40;;;;;;5093865;28;20515;-84
2023/02/02 10:55:03;;;;;;;8.77;3.27;;;12.00;94.20;;;;;;5092720;28;20448;-83
2023/02/02 10:58:03;;;;;;;2.97;2.10;;;11.90;94.80;;;;;;5093449;28;20482;-84
2023/02/02 11:00:47;;;;;;;4.23;1.60;;;12.00;93.90;;;;;;5088508;28;20444;-84
2023/02/02 11:03:15;;;;;;;2.20;1.37;;;12.00;93.70;;;;;;5092994;28;20565;-84
2023/02/02 11:08:41;;;;;;;1.60;1.40;;;11.90;94.70;;;;;;5098269;28;20508;-83
2023/02/02 11:11:22;;;;;;;3.03;2.57;;;12.00;93.80;;;;;;5103412;28;20514;-83
2023/02/02 11:13:50;;;;;;;2.60;2.40;;;12.10;94.10;;;;;;5080350;28;20486;-83
2023/02/02 11:16:16;;;;;;;2.77;1.27;;;12.20;93.90;;;;;;5089203;28;20463;-84
2023/02/02 11:18:43;;;;;;;1.40;1.00;;;12.30;93.90;;;;;;5102459;28;20452;-84
2023/02/02 11:21:32;;;;;;;4.83;1.00;;;12.30;93.00;;;;;;5072156;28;20176;-84
2023/02/02 11:24:05;;;;;;;1.17;0.70;;;12.30;92.60;;;;;;5073473;28;20968;-84
2023/02/02 11:26:54;;;;;;;1.00;0.77;;;12.30;93.10;;;;;;5093376;28;20547;-85
2023/02/02 11:29:53;;;;;;;1.60;0.93;;;12.20;91.90;;;;;;5111536;28;20391;-85
2023/02/02 11:32:28;;;;;;;2.07;1.00;;;12.10;92.00;;;;;;5104239;28;20513;-84
2023/02/02 11:35:03;;;;;;;2.83;1.10;;;11.90;91.60;;;;;;5086499;28;20975;-85
2023/02/02 11:37:34;;;;;;;2.93;1.40;;;11.80;92.20;;;;;;5077885;28;20475;-83
2023/02/02 11:40:27;;;;;;;2.63;1.23;;;11.80;92.50;;;;;;5104455;28;20957;-83
2023/02/02 11:42:54;;;;;;;2.13;1.00;;;11.90;93.10;;;;;;5102860;28;20499;-84
2023/02/02 11:45:37;;;;;;;4.13;1.20;;;11.90;92.50;;;;;;5099447;28;20492;-83
2023/02/02 11:48:21;;;;;;;1.43;1.33;;;11.90;92.90;;;;;;5097354;28;20448;-84
2023/02/02 11:50:55;;;;;;;2.70;1.10;;;11.80;92.70;;;;;;5084264;28;20493;-83
2023/02/02 11:53:43;;;;;;;5.95;1.50;;;11.60;92.70;;;;;;5100190;28;20503;-84
2023/02/02 11:56:22;;;;;;;2.60;1.10;;;11.40;92.80;;;;;;5100124;28;20247;-84
2023/02/02 11:58:59;;;;;;;3.83;1.57;;;11.30;93.20;;;;;;5082295;28;20444;-84
2023/02/02 12:01:30;;;;;;;3.45;1.30;;;11.10;93.30;;;;;;5099304;28;20428;-86
2023/02/02 12:04:00;;;;;;;2.80;1.20;;;11.00;93.10;;;;;;5098079;28;20236;-85
2023/02/02 12:06:32;;;;;;;2.60;1.02;;;10.90;93.60;;;;;;5081270;28;20277;-84
2023/02/02 12:09:00;;;;;;;1.75;1.13;;;10.70;93.00;;;;;;5081526;28;20202;-85
2023/02/02 12:11:37;;;;;;;2.20;0.98;;;10.50;92.90;;;;;;5095730;28;20314;-84
2023/02/02 12:14:27;;;;;;;3.20;1.10;;;10.40;92.90;;;;;;5103290;28;20207;-85
2023/02/02 12:17:12;;;;;;;3.80;1.05;;;10.30;93.00;;;;;;5083085;28;20655;-84
2023/02/02 12:20:03;;;;;;;2.65;0.93;;;10.30;92.90;;;;;;5109010;28;20180;-85
2023/02/02 12:22:44;;;;;;;1.65;0.95;;;10.20;93.60;;;;;;5109865;28;20261;-83
2023/02/02 12:25:37;;;;;;;2.10;0.98;;;10.20;93.60;;;;;;5084667;28;20207;-86
2023/02/02 12:28:15;;;;;;;2.33;0.70;;;10.20;93.40;;;;;;5105241;28;20216;-84
2023/02/02 12:30:44;;;;;;;2.55;0.90;;;10.20;93.30;;;;;;5105088;28;20539;-83
2023/02/02 12:33:32;;;;;;;4.25;1.50;;;10.20;93.60;;;;;;5110274;28;20226;-85
2023/02/02 12:36:15;;;;;;;1.70;0.70;;;10.20;93.60;;;;;;5102397;28;20275;-83
2023/02/02 12:39:00;;;;;;;3.45;0.75;;;10.30;93.30;;;;;;5102973;28;20222;-83
2023/02/02 12:41:34;;;;;;;2.30;0.90;;;10.40;93.90;;;;;;5082279;28;20180;-84
2023/02/02 12:44:06;;;;;;;2.78;0.80;;;10.70;92.80;;;;;;5103641;28;20625;-84
2023/02/02 12:46:49;;;;;;;2.88;0.98;;;10.80;92.60;;;;;;5100906;28;20180;-85
2023/02/02 12:49:44;;;;;;;1.30;0.65;;;10.90;92.60;;;;;;5074145;28;20176;-83
2023/02/02 12:52:44;;;;;;;2.20;0.80;;;10.90;93.00;;;;;;5107176;28;20195;-85
2023/02/02 12:55:17;;;;;;;1.00;0.80;;;11.00;93.00;;;;;;5089129;28;20286;-83
2023/02/02 12:58:13;;;;;;;1.85;0.98;;;11.10;93.20;;;;;;5090459;28;20245;-83
2023/02/02 13:00:47;;;;;;;1.67;1.20;;;11.10;93.50;;;;;;5107312;28;20176;-83
2023/02/02 13:03:37;;;;;;;4.47;1.08;;;11.10;93.40;;;;;;5089363;28;21035;-83
2023/02/02 13:06:40;;;;;;;2.47;2.03;;;10.90;94.10;;;;;;5081707;28;20203;-84
2023/02/02 13:09:27;;;;;;;3.25;1.42;;;10.80;94.40;;;;;;5094549;28;20218;-83
2023/02/02 13:11:59;;;;;;;2.45;1.05;;;10.80;94.80;;;;;;5106903;28;20235;-84
2023/02/02 13:14:43;;;;;;;2.10;1.20;;;10.80;95.50;;;;;;5093476;28;20234;-84
2023/02/02 13:17:22;;;;;;;5.20;2.08;;;10.80;94.80;;;;;;5104673;28;20215;-84
2023/02/02 13:19:54;;;;;;;5.10;1.63;;;10.70;94.80;;;;;;5086498;28;20179;-84
2023/02/02 13:22:33;;;;;;;2.65;1.30;;;10.70;95.00;;;;;;5088495;28;20204;-84
2023/02/02 13:25:02;;;;;;;2.05;1.05;;;10.70;95.20;;;;;;5081133;28;20608;-83